Time;durP1;ratioP1;P1;durP2;ratioP2;P2;SDS_P1;SDS_P2;PMS_P1;PMS_P2;Temp;Humidity;BMP_temperature;BMP_pressure;BME280_temperature;BME280_humidity;BME280_pressure;Samples;Min_cycle;Max_cycle;Signal;HPM_P1;HPM_P2
2022/03/13 00:00:46;;;;;;;3.30;2.30;;;11.20;99.90;;;;;;4068645;29;20208;-94
2022/03/13 00:02:47;;;;;;;8.63;2.80;;;11.20;99.90;;;;;;4084172;29;20187;-94
2022/03/13 00:04:49;;;;;;;4.53;2.60;;;11.10;99.90;;;;;;4068374;29;20744;-95
2022/03/13 00:06:50;;;;;;;3.87;2.50;;;11.20;99.90;;;;;;4068629;29;20219;-94
2022/03/13 00:08:54;;;;;;;4.07;2.43;;;11.20;99.90;;;;;;4068637;29;20180;-94
2022/03/13 00:11:01;;;;;;;3.90;2.37;;;11.30;99.90;;;;;;4084173;29;20277;-94
2022/03/13 00:13:03;;;;;;;4.20;2.67;;;11.20;99.90;;;;;;4068911;29;20199;-95
2022/03/13 00:15:12;;;;;;;4.97;2.80;;;11.30;99.90;;;;;;4068205;29;20227;-95
2022/03/13 00:17:17;;;;;;;6.07;2.80;;;11.40;99.90;;;;;;4069139;29;20182;-96
2022/03/13 00:19:20;;;;;;;4.93;2.70;;;11.40;99.90;;;;;;4085630;29;20653;-94
2022/03/13 00:21:20;;;;;;;4.13;2.77;;;11.50;99.90;;;;;;4084097;29;20215;-94
2022/03/13 00:23:23;;;;;;;4.00;2.57;;;11.40;99.90;;;;;;4084476;29;20180;-96
2022/03/13 00:25:25;;;;;;;6.47;2.93;;;11.40;99.90;;;;;;4068970;29;20196;-95
2022/03/13 00:27:30;;;;;;;5.93;2.73;;;11.40;99.90;;;;;;4069888;29;20177;-93
2022/03/13 00:29:30;;;;;;;7.03;3.00;;;11.40;99.90;;;;;;4068388;29;20196;-96
2022/03/13 00:31:31;;;;;;;4.20;2.63;;;11.40;99.90;;;;;;4068376;29;20172;-95
2022/03/13 00:33:32;;;;;;;8.10;2.53;;;11.40;99.90;;;;;;4084900;29;20171;-95
2022/03/13 00:35:34;;;;;;;4.33;2.77;;;11.40;99.90;;;;;;4099866;28;20786;-95
2022/03/13 00:37:34;;;;;;;3.87;2.50;;;11.40;99.90;;;;;;4087520;29;20226;-96
2022/03/13 00:39:38;;;;;;;3.93;2.77;;;11.50;99.90;;;;;;4072454;29;20682;-93
2022/03/13 00:41:39;;;;;;;5.10;3.03;;;11.40;99.90;;;;;;4087536;29;20203;-94
2022/03/13 00:43:40;;;;;;;4.87;2.70;;;11.40;99.90;;;;;;4072533;29;20177;-95
2022/03/13 00:45:40;;;;;;;3.97;2.43;;;11.40;99.90;;;;;;4072629;29;20200;-96
2022/03/13 00:47:41;;;;;;;4.60;2.60;;;11.40;99.90;;;;;;4071698;29;20213;-95
2022/03/13 00:49:42;;;;;;;10.03;4.83;;;11.40;99.90;;;;;;4072308;29;20582;-95
2022/03/13 00:51:44;;;;;;;8.93;4.30;;;11.30;99.90;;;;;;4071478;29;20214;-96
2022/03/13 00:53:45;;;;;;;7.50;4.30;;;11.30;99.90;;;;;;4071282;29;20183;-95
2022/03/13 00:55:45;;;;;;;6.27;3.77;;;11.40;99.90;;;;;;4070884;29;20219;-94
2022/03/13 00:57:46;;;;;;;5.30;3.07;;;11.40;99.90;;;;;;4071614;29;20537;-94
2022/03/13 00:59:47;;;;;;;4.40;3.10;;;11.40;99.90;;;;;;4070984;29;20263;-95
2022/03/13 01:01:48;;;;;;;7.30;3.20;;;11.40;99.90;;;;;;4087234;29;20215;-94
2022/03/13 01:03:51;;;;;;;4.90;3.30;;;11.50;99.90;;;;;;4071551;29;20235;-95
2022/03/13 01:05:52;;;;;;;4.70;3.03;;;11.40;99.90;;;;;;4070704;29;20204;-95
2022/03/13 01:07:55;;;;;;;6.63;3.77;;;11.40;99.90;;;;;;4086394;29;20262;-95
2022/03/13 01:09:55;;;;;;;6.07;3.20;;;11.40;99.90;;;;;;4070995;29;20168;-93
2022/03/13 01:11:56;;;;;;;5.30;3.10;;;11.40;99.90;;;;;;4086373;29;20182;-95
2022/03/13 01:13:57;;;;;;;4.30;2.97;;;11.40;99.90;;;;;;4070489;29;20180;-94
2022/03/13 01:16:20;;;;;;;4.97;2.77;;;11.40;99.90;;;;;;4102584;28;20228;-96
2022/03/13 01:18:21;;;;;;;4.73;3.37;;;11.50;99.90;;;;;;4086504;29;20168;-95
2022/03/13 01:20:22;;;;;;;5.87;3.47;;;11.60;99.90;;;;;;4070613;29;20652;-94
2022/03/13 01:22:23;;;;;;;5.17;3.00;;;11.60;99.90;;;;;;4070973;29;20274;-94
2022/03/13 01:24:29;;;;;;;7.27;3.17;;;11.50;99.90;;;;;;4086820;29;20196;-95
2022/03/13 01:26:34;;;;;;;7.50;3.27;;;11.50;99.90;;;;;;4070182;29;20271;-95
2022/03/13 01:28:35;;;;;;;5.27;3.73;;;11.60;99.90;;;;;;4070630;29;20184;-96
2022/03/13 01:30:35;;;;;;;4.78;3.03;;;11.60;99.90;;;;;;4071654;29;20180;-93
2022/03/13 01:32:36;;;;;;;5.57;3.43;;;11.70;99.90;;;;;;4086125;29;20175;-94
2022/03/13 01:34:38;;;;;;;5.33;3.57;;;11.70;99.90;;;;;;4070333;29;20683;-94
2022/03/13 01:36:40;;;;;;;6.03;3.50;;;11.70;99.90;;;;;;4086074;29;20186;-94
2022/03/13 01:38:41;;;;;;;5.50;3.57;;;11.70;99.90;;;;;;4085697;29;20172;-94
2022/03/13 01:40:41;;;;;;;7.13;3.90;;;11.60;99.90;;;;;;4070398;29;20254;-95
2022/03/13 01:42:44;;;;;;;5.87;3.90;;;11.40;99.90;;;;;;4085896;29;20179;-93
2022/03/13 01:44:45;;;;;;;6.73;3.90;;;11.40;99.90;;;;;;4085447;29;20199;-94
2022/03/13 01:46:47;;;;;;;6.23;3.27;;;11.40;99.90;;;;;;4069423;29;20181;-94
2022/03/13 01:49:05;;;;;;;5.47;3.40;;;11.20;99.90;;;;;;4085704;29;20238;-95
2022/03/13 01:51:06;;;;;;;5.63;3.67;;;11.10;99.90;;;;;;4070093;29;20232;-95
2022/03/13 01:53:08;;;;;;;5.60;3.60;;;11.20;99.90;;;;;;4085858;29;20663;-94
2022/03/13 01:55:09;;;;;;;5.17;3.67;;;11.40;99.90;;;;;;4070234;29;20212;-95
2022/03/13 01:57:15;;;;;;;5.83;3.60;;;11.30;99.90;;;;;;4070876;29;20223;-95
2022/03/13 01:59:17;;;;;;;6.50;3.90;;;11.40;99.90;;;;;;4070377;29;20187;-93
2022/03/13 02:01:19;;;;;;;5.93;3.60;;;11.30;99.90;;;;;;4069701;29;20218;-93
2022/03/13 02:03:22;;;;;;;7.00;3.40;;;11.30;99.90;;;;;;4069694;29;20649;-95
2022/03/13 02:05:35;;;;;;;5.40;3.77;;;11.30;99.90;;;;;;4085205;29;20235;-94
2022/03/13 02:07:36;;;;;;;7.17;4.20;;;11.30;99.90;;;;;;4069587;29;20183;-94
2022/03/13 02:09:37;;;;;;;6.47;4.00;;;11.40;99.90;;;;;;4085363;29;20178;-95
2022/03/13 02:11:40;;;;;;;6.90;3.77;;;11.30;99.90;;;;;;4069167;29;20304;-95
2022/03/13 02:13:41;;;;;;;6.03;3.67;;;11.40;99.90;;;;;;4085816;29;20175;-95
2022/03/13 02:15:44;;;;;;;7.13;3.90;;;11.30;99.90;;;;;;4069675;29;20196;-95
2022/03/13 02:17:45;;;;;;;6.97;3.87;;;11.20;99.90;;;;;;4070264;29;20326;-95
2022/03/13 02:19:46;;;;;;;5.80;3.73;;;11.20;99.90;;;;;;4085360;29;20213;-95
2022/03/13 02:21:53;;;;;;;6.33;4.10;;;11.20;99.90;;;;;;4069369;29;20217;-94
2022/03/13 02:24:01;;;;;;;7.73;4.37;;;11.40;99.90;;;;;;4069353;29;20184;-95
2022/03/13 02:26:05;;;;;;;8.03;4.70;;;11.40;99.90;;;;;;4085194;29;20199;-94
2022/03/13 02:28:06;;;;;;;7.67;4.40;;;11.30;99.90;;;;;;4069598;29;20660;-95
2022/03/13 02:30:08;;;;;;;7.40;3.87;;;11.20;99.90;;;;;;4085229;29;20171;-95
2022/03/13 02:32:09;;;;;;;6.30;4.27;;;11.30;99.90;;;;;;4069474;29;20244;-95
2022/03/13 02:34:12;;;;;;;7.50;4.50;;;11.10;99.90;;;;;;4085089;29;20526;-95
2022/03/13 02:36:31;;;;;;;10.43;5.30;;;11.10;99.90;;;;;;4069155;29;20199;-94
2022/03/13 02:38:32;;;;;;;9.23;5.40;;;11.10;99.90;;;;;;4085261;29;20234;-95
2022/03/13 02:40:34;;;;;;;8.37;5.50;;;11.10;99.90;;;;;;4069015;29;20172;-94
2022/03/13 02:42:35;;;;;;;7.10;4.90;;;11.00;99.90;;;;;;4069658;29;20255;-96
2022/03/13 02:44:36;;;;;;;8.50;5.10;;;11.00;99.90;;;;;;4069270;29;20573;-95
2022/03/13 02:46:46;;;;;;;7.10;5.07;;;11.00;99.90;;;;;;4069068;29;20219;-94
2022/03/13 02:48:48;;;;;;;6.77;4.60;;;11.00;99.90;;;;;;4068806;29;20267;-94
2022/03/13 02:50:49;;;;;;;7.53;4.57;;;11.10;99.90;;;;;;4085009;29;20660;-95
2022/03/13 02:52:50;;;;;;;7.40;4.03;;;11.20;99.90;;;;;;4069445;29;20171;-95
2022/03/13 02:54:51;;;;;;;6.77;4.50;;;11.10;99.90;;;;;;4068910;29;20658;-94
2022/03/13 02:56:52;;;;;;;7.33;4.83;;;11.00;99.90;;;;;;4085197;29;20179;-94
2022/03/13 02:58:53;;;;;;;7.27;4.47;;;11.00;99.90;;;;;;4069032;29;20229;-95
2022/03/13 03:00:53;;;;;;;7.83;4.70;;;11.10;99.90;;;;;;4084940;29;20203;-94
2022/03/13 03:02:54;;;;;;;6.90;4.87;;;11.10;99.90;;;;;;4069447;29;20188;-94
2022/03/13 03:04:55;;;;;;;6.67;4.90;;;11.10;99.90;;;;;;4084820;29;20231;-95
2022/03/13 03:07:01;;;;;;;6.57;4.73;;;11.10;99.90;;;;;;4069145;29;20188;-94
2022/03/13 03:09:03;;;;;;;8.20;4.93;;;11.20;99.90;;;;;;4069087;29;20237;-94
2022/03/13 03:11:04;;;;;;;8.63;4.93;;;11.20;99.90;;;;;;4069136;29;20184;-95
2022/03/13 03:13:10;;;;;;;8.00;4.97;;;11.10;99.90;;;;;;4069283;29;20553;-95
2022/03/13 03:15:11;;;;;;;7.70;5.13;;;11.20;99.90;;;;;;4069675;29;20204;-94
2022/03/13 03:17:12;;;;;;;7.57;4.60;;;11.10;99.90;;;;;;4068807;29;20184;-94
2022/03/13 03:19:13;;;;;;;8.27;5.00;;;11.20;99.90;;;;;;4084902;29;20247;-94
2022/03/13 03:21:15;;;;;;;9.43;4.97;;;11.10;99.90;;;;;;4084523;29;20216;-95
2022/03/13 03:23:16;;;;;;;7.33;4.90;;;11.20;99.90;;;;;;4069391;29;20679;-94
2022/03/13 03:25:23;;;;;;;8.27;4.93;;;11.10;99.90;;;;;;4084380;29;20226;-95
2022/03/13 03:27:23;;;;;;;8.10;5.40;;;11.10;99.90;;;;;;4084330;29;20202;-94
2022/03/13 03:29:25;;;;;;;8.37;5.50;;;11.20;99.90;;;;;;4085351;29;20176;-94
2022/03/13 03:31:26;;;;;;;7.77;5.07;;;11.10;99.90;;;;;;4084928;29;20180;-95
2022/03/13 03:33:27;;;;;;;7.83;5.50;;;11.10;99.90;;;;;;4068731;29;20182;-94
2022/03/13 03:35:28;;;;;;;8.30;5.37;;;11.00;99.90;;;;;;4069196;29;20207;-94
2022/03/13 03:37:33;;;;;;;7.07;5.17;;;11.10;99.90;;;;;;4084429;29;20180;-95
2022/03/13 03:39:34;;;;;;;8.07;5.30;;;11.00;99.90;;;;;;4068592;29;20176;-95
2022/03/13 03:41:35;;;;;;;8.40;5.57;;;11.10;99.90;;;;;;4084337;29;20215;-95
2022/03/13 03:43:36;;;;;;;8.90;5.90;;;11.10;99.90;;;;;;4084525;29;20180;-94
2022/03/13 03:45:37;;;;;;;8.60;5.87;;;11.10;99.90;;;;;;4070148;29;20266;-95
2022/03/13 03:47:38;;;;;;;10.43;5.70;;;11.30;99.90;;;;;;4068603;29;20169;-95
2022/03/13 03:49:40;;;;;;;10.13;5.40;;;11.30;99.90;;;;;;4068745;29;20602;-96
2022/03/13 03:51:42;;;;;;;7.33;5.27;;;11.20;99.90;;;;;;4084105;29;20176;-94
2022/03/13 03:53:43;;;;;;;7.40;5.00;;;11.30;99.90;;;;;;4084571;29;20179;-94
2022/03/13 03:55:44;;;;;;;8.43;5.27;;;11.30;99.90;;;;;;4084235;29;20212;-95
2022/03/13 03:57:45;;;;;;;8.87;5.27;;;11.30;99.90;;;;;;4068637;29;20180;-94
2022/03/13 03:59:46;;;;;;;7.77;5.00;;;11.30;99.90;;;;;;4084332;29;20637;-95
2022/03/13 04:01:46;;;;;;;8.07;5.53;;;11.50;99.90;;;;;;4068345;29;20275;-95
2022/03/13 04:03:47;;;;;;;10.57;5.63;;;11.40;99.90;;;;;;4099660;28;20636;-94
2022/03/13 04:05:48;;;;;;;8.60;5.43;;;11.30;99.90;;;;;;4068381;29;20211;-95
2022/03/13 04:07:49;;;;;;;7.13;5.40;;;11.40;99.90;;;;;;4084132;29;20179;-95
2022/03/13 04:09:50;;;;;;;8.37;5.60;;;11.40;99.90;;;;;;4069039;29;20538;-95
2022/03/13 04:11:52;;;;;;;7.97;5.43;;;11.40;99.90;;;;;;4087600;29;20186;-94
2022/03/13 04:13:52;;;;;;;8.17;5.33;;;11.50;99.90;;;;;;4071639;29;20169;-95
2022/03/13 04:15:53;;;;;;;9.13;5.73;;;11.50;99.90;;;;;;4071526;29;20661;-95
2022/03/13 04:17:55;;;;;;;10.17;5.30;;;11.30;99.90;;;;;;4087101;29;20179;-94
2022/03/13 04:19:58;;;;;;;8.53;5.40;;;11.20;99.90;;;;;;4087094;29;20278;-95
2022/03/13 04:21:58;;;;;;;8.20;5.47;;;11.10;99.90;;;;;;4086909;29;20218;-95
2022/03/13 04:23:59;;;;;;;7.43;5.37;;;11.20;99.90;;;;;;4086932;29;20187;-94
2022/03/13 04:26:00;;;;;;;7.30;5.43;;;11.20;99.90;;;;;;4070984;29;20330;-94
2022/03/13 04:28:02;;;;;;;8.23;5.47;;;11.20;99.90;;;;;;4086965;29;20278;-95
2022/03/13 04:30:04;;;;;;;8.67;6.00;;;11.20;99.90;;;;;;4071104;29;20180;-94
2022/03/13 04:32:08;;;;;;;8.23;5.63;;;11.10;99.90;;;;;;4086907;29;20187;-94
2022/03/13 04:34:10;;;;;;;7.83;5.70;;;11.00;99.90;;;;;;4086874;29;20207;-95
2022/03/13 04:36:15;;;;;;;7.53;5.60;;;10.90;99.90;;;;;;4086760;29;20287;-95
2022/03/13 04:38:16;;;;;;;8.20;5.63;;;10.80;99.90;;;;;;4070957;29;20222;-95
2022/03/13 04:40:18;;;;;;;7.73;5.13;;;10.80;99.90;;;;;;4070839;29;20951;-94
2022/03/13 04:42:19;;;;;;;9.30;5.77;;;10.80;99.90;;;;;;4086622;29;20207;-94
2022/03/13 04:44:21;;;;;;;9.10;5.57;;;10.80;99.90;;;;;;4070922;29;20180;-95
2022/03/13 04:46:22;;;;;;;7.80;5.63;;;10.70;99.90;;;;;;4070703;29;20187;-94
2022/03/13 04:48:23;;;;;;;10.10;5.67;;;10.80;99.90;;;;;;4086661;29;20606;-94
2022/03/13 04:50:23;;;;;;;9.40;5.60;;;10.80;99.90;;;;;;4070811;29;20168;-95
2022/03/13 04:52:24;;;;;;;8.43;5.40;;;10.90;99.90;;;;;;4086377;29;20172;-95
2022/03/13 04:54:25;;;;;;;7.10;5.57;;;10.90;99.90;;;;;;4070600;29;20195;-94
2022/03/13 04:56:26;;;;;;;7.33;5.23;;;10.90;99.90;;;;;;4086131;29;20187;-94
2022/03/13 04:58:27;;;;;;;8.43;5.70;;;11.00;99.90;;;;;;4070936;29;20196;-94
2022/03/13 05:00:31;;;;;;;9.13;5.33;;;10.90;99.90;;;;;;4070839;29;20625;-94
2022/03/13 05:02:31;;;;;;;7.73;5.23;;;10.90;99.90;;;;;;4086382;29;20180;-95
2022/03/13 05:04:32;;;;;;;10.27;6.27;;;10.80;99.90;;;;;;4086161;29;20182;-96
2022/03/13 05:06:36;;;;;;;9.87;5.80;;;10.70;99.90;;;;;;4070662;29;20180;-94
2022/03/13 05:08:37;;;;;;;7.70;5.53;;;10.60;99.90;;;;;;4086397;29;20705;-95
2022/03/13 05:10:39;;;;;;;13.20;6.47;;;10.60;99.90;;;;;;4086150;29;20618;-95
2022/03/13 05:12:41;;;;;;;9.83;6.13;;;10.50;99.90;;;;;;4070607;29;20283;-94
2022/03/13 05:14:41;;;;;;;10.40;6.27;;;10.30;99.90;;;;;;4070564;29;20263;-95
2022/03/13 05:16:42;;;;;;;8.23;6.20;;;10.30;99.90;;;;;;4086134;29;20191;-94
2022/03/13 05:18:43;;;;;;;11.07;6.60;;;10.30;99.90;;;;;;4070628;29;20202;-94
2022/03/13 05:20:43;;;;;;;11.07;6.33;;;10.30;99.90;;;;;;4070564;29;20215;-94
2022/03/13 05:22:44;;;;;;;12.10;6.20;;;10.30;99.90;;;;;;4069830;29;20260;-94
2022/03/13 05:24:49;;;;;;;11.63;6.20;;;10.30;99.90;;;;;;4085942;29;20683;-94
2022/03/13 05:26:49;;;;;;;10.33;6.47;;;10.30;99.90;;;;;;4070217;29;20593;-95
2022/03/13 05:28:50;;;;;;;9.87;6.77;;;10.20;99.90;;;;;;4086047;29;20215;-94
2022/03/13 05:30:51;;;;;;;10.03;6.27;;;10.10;99.90;;;;;;4070319;29;20188;-95
2022/03/13 05:32:52;;;;;;;10.80;6.73;;;10.00;99.90;;;;;;4086090;29;20656;-96
2022/03/13 05:34:57;;;;;;;12.47;7.13;;;9.90;99.90;;;;;;4070321;29;20560;-94
2022/03/13 05:36:57;;;;;;;10.33;7.10;;;10.00;99.90;;;;;;4085891;29;20274;-94
2022/03/13 05:38:59;;;;;;;11.67;7.40;;;9.90;99.90;;;;;;4070266;29;20231;-95
2022/03/13 05:41:05;;;;;;;12.70;6.73;;;10.10;99.90;;;;;;4069857;29;20256;-94
2022/03/13 05:43:06;;;;;;;16.40;7.10;;;10.10;99.90;;;;;;4070158;29;20183;-94
2022/03/13 05:45:15;;;;;;;11.87;7.43;;;10.10;99.90;;;;;;4070066;29;20196;-95
2022/03/13 05:47:16;;;;;;;10.60;6.87;;;10.10;99.90;;;;;;4069960;29;20259;-95
2022/03/13 05:49:17;;;;;;;10.53;7.33;;;9.90;99.90;;;;;;4070007;29;20578;-94
2022/03/13 05:51:18;;;;;;;11.57;7.50;;;10.10;99.90;;;;;;4085780;29;20328;-94
2022/03/13 05:53:19;;;;;;;11.43;6.87;;;10.20;99.90;;;;;;4069864;29;20192;-94
2022/03/13 05:55:20;;;;;;;13.97;7.83;;;10.20;99.90;;;;;;4069698;29;20212;-94
2022/03/13 05:57:21;;;;;;;13.40;8.60;;;10.10;99.90;;;;;;4069798;29;20290;-95
2022/03/13 05:59:23;;;;;;;13.97;8.30;;;10.40;99.90;;;;;;4085372;29;20291;-95
2022/03/13 06:01:23;;;;;;;14.20;8.90;;;10.40;99.90;;;;;;4085400;29;20215;-94
2022/03/13 06:03:24;;;;;;;14.97;8.50;;;10.60;99.90;;;;;;4069976;29;20266;-95
2022/03/13 06:05:26;;;;;;;14.67;8.73;;;10.70;99.90;;;;;;4069761;29;20208;-94
2022/03/13 06:07:27;;;;;;;20.03;9.20;;;10.90;99.90;;;;;;4085433;29;20176;-94
2022/03/13 06:09:27;;;;;;;14.03;9.00;;;10.90;99.90;;;;;;4069553;29;20191;-94
2022/03/13 06:11:28;;;;;;;16.37;9.57;;;10.90;99.90;;;;;;4069487;29;20574;-94
2022/03/13 06:13:29;;;;;;;13.33;9.40;;;10.70;99.90;;;;;;4069530;29;20211;-95
2022/03/13 06:15:31;;;;;;;15.20;9.93;;;10.80;99.90;;;;;;4085110;29;20184;-95
2022/03/13 06:17:36;;;;;;;15.77;9.70;;;10.60;99.90;;;;;;4069463;29;20191;-94
2022/03/13 06:19:42;;;;;;;15.30;9.37;;;10.60;99.90;;;;;;4085010;29;20223;-93
2022/03/13 06:21:43;;;;;;;16.03;10.43;;;10.50;99.90;;;;;;4069540;29;20220;-95
2022/03/13 06:23:44;;;;;;;17.77;10.43;;;10.50;99.90;;;;;;4085392;29;20530;-94
2022/03/13 06:25:45;;;;;;;17.83;10.23;;;10.60;99.90;;;;;;4069599;29;20236;-94
2022/03/13 06:27:46;;;;;;;16.37;10.67;;;10.50;99.90;;;;;;4085934;29;20171;-95
2022/03/13 06:29:46;;;;;;;18.10;10.97;;;10.70;99.90;;;;;;4085220;29;20179;-95
2022/03/13 06:31:47;;;;;;;17.27;11.23;;;10.90;99.90;;;;;;4069627;29;20198;-94
2022/03/13 06:33:48;;;;;;;16.93;10.90;;;11.00;99.90;;;;;;4084006;29;20283;-94
2022/03/13 06:35:49;;;;;;;18.10;11.87;;;10.80;99.90;;;;;;4069255;29;20196;-93
2022/03/13 06:37:51;;;;;;;20.67;11.67;;;10.70;99.90;;;;;;4100978;28;20269;-94
2022/03/13 06:39:51;;;;;;;17.13;10.43;;;10.70;99.90;;;;;;4069028;29;20172;-94
2022/03/13 06:41:53;;;;;;;16.37;10.57;;;10.60;99.90;;;;;;4084943;29;20382;-95
2022/03/13 06:43:53;;;;;;;16.97;11.17;;;10.50;99.90;;;;;;4069113;29;20176;-94
2022/03/13 06:45:54;;;;;;;17.23;11.00;;;10.60;99.90;;;;;;4069092;29;20204;-93
2022/03/13 06:47:55;;;;;;;20.60;11.93;;;10.60;99.90;;;;;;4068991;29;20665;-94
2022/03/13 06:49:56;;;;;;;16.10;11.17;;;10.80;99.90;;;;;;4084858;29;20227;-94
2022/03/13 06:51:56;;;;;;;19.43;10.90;;;10.70;99.90;;;;;;4084737;29;20167;-95
2022/03/13 06:53:57;;;;;;;16.77;11.00;;;10.90;99.90;;;;;;4068953;29;20200;-93
2022/03/13 06:55:58;;;;;;;17.10;10.93;;;11.10;99.90;;;;;;4068937;29;20208;-94
2022/03/13 06:57:59;;;;;;;17.20;11.63;;;11.50;99.90;;;;;;4068988;29;20176;-93
2022/03/13 07:00:00;;;;;;;17.57;11.20;;;11.80;99.90;;;;;;4084472;29;20539;-95
2022/03/13 07:02:01;;;;;;;16.77;11.27;;;12.10;99.90;;;;;;4068692;29;20220;-95
2022/03/13 07:04:02;;;;;;;19.70;10.93;;;12.10;99.90;;;;;;4084701;29;20194;-95
2022/03/13 07:06:04;;;;;;;16.48;11.00;;;12.60;99.90;;;;;;4068914;29;20205;-92
2022/03/13 07:08:04;;;;;;;19.15;11.10;;;13.20;99.90;;;;;;4084386;29;20180;-94
2022/03/13 07:10:10;;;;;;;15.63;10.93;;;13.90;99.90;;;;;;4084261;29;20694;-94
2022/03/13 07:12:12;;;;;;;20.88;11.52;;;14.20;99.90;;;;;;4068726;29;20188;-93
2022/03/13 07:14:13;;;;;;;16.67;10.35;;;14.80;99.90;;;;;;4068796;29;20176;-94
2022/03/13 07:16:15;;;;;;;14.88;10.45;;;15.40;99.90;;;;;;4084241;29;20286;-94
2022/03/13 07:18:17;;;;;;;15.25;10.90;;;15.80;99.90;;;;;;4084309;29;20203;-94
2022/03/13 07:20:18;;;;;;;18.08;11.30;;;15.60;99.90;;;;;;4068844;29;20168;-95
2022/03/13 07:22:18;;;;;;;16.73;10.93;;;15.30;99.90;;;;;;4084525;29;20269;-95
2022/03/13 07:24:19;;;;;;;15.38;10.65;;;15.60;99.90;;;;;;4068961;29;20207;-93
2022/03/13 07:26:20;;;;;;;15.98;10.55;;;15.60;99.90;;;;;;4068762;29;20248;-94
2022/03/13 07:28:22;;;;;;;22.33;11.40;;;15.70;99.90;;;;;;4068790;29;20267;-94
2022/03/13 07:30:23;;;;;;;17.58;10.90;;;16.00;99.90;;;;;;4084152;29;20235;-94
2022/03/13 07:32:24;;;;;;;14.73;10.60;;;16.10;99.90;;;;;;4068829;29;20525;-96
2022/03/13 07:34:26;;;;;;;15.23;10.77;;;16.10;99.90;;;;;;4084108;29;20187;-94
2022/03/13 07:36:27;;;;;;;14.85;10.60;;;16.00;99.90;;;;;;4084297;29;20176;-96
2022/03/13 07:38:28;;;;;;;18.52;10.80;;;16.10;99.90;;;;;;4068682;29;20589;-94
2022/03/13 07:40:29;;;;;;;14.32;10.15;;;16.20;99.90;;;;;;4068290;29;20268;-94
2022/03/13 07:42:30;;;;;;;15.93;10.30;;;16.30;99.90;;;;;;4084193;29;20226;-96
2022/03/13 07:44:31;;;;;;;14.80;10.65;;;16.30;99.90;;;;;;4083711;29;20168;-95
2022/03/13 07:46:31;;;;;;;14.00;10.00;;;16.50;99.90;;;;;;4068654;29;20537;-95
2022/03/13 07:48:35;;;;;;;14.02;9.63;;;16.70;99.90;;;;;;4068170;29;20168;-95
2022/03/13 07:50:36;;;;;;;16.52;10.20;;;16.50;99.90;;;;;;4068360;29;20172;-94
2022/03/13 07:52:37;;;;;;;13.40;10.10;;;16.80;99.90;;;;;;4068292;29;20231;-94
2022/03/13 07:54:38;;;;;;;14.95;9.85;;;16.80;99.90;;;;;;4084320;29;20179;-94
2022/03/13 07:56:38;;;;;;;12.73;9.32;;;16.80;99.90;;;;;;4084146;29;20183;-93
2022/03/13 07:58:39;;;;;;;14.60;9.35;;;17.00;99.90;;;;;;4084127;29;20243;-94
2022/03/13 08:00:40;;;;;;;14.05;9.93;;;16.30;99.90;;;;;;4068173;29;20560;-94
2022/03/13 08:02:44;;;;;;;13.43;9.43;;;15.60;99.90;;;;;;4068343;29;20176;-94
2022/03/13 08:04:48;;;;;;;17.08;10.68;;;15.00;99.90;;;;;;4071315;29;20279;-96
2022/03/13 08:06:49;;;;;;;15.50;9.88;;;15.10;99.90;;;;;;4073848;29;20207;-96
2022/03/13 08:08:50;;;;;;;14.60;9.40;;;15.60;99.90;;;;;;4075154;29;20188;-96
2022/03/13 08:10:51;;;;;;;14.98;9.70;;;15.80;99.90;;;;;;4088722;29;20246;-96
2022/03/13 08:12:53;;;;;;;16.70;9.82;;;16.20;99.90;;;;;;4074489;29;20177;-96
2022/03/13 08:15:09;;;;;;;18.70;9.93;;;16.50;99.90;;;;;;4091452;29;20206;-95
2022/03/13 08:17:10;;;;;;;16.08;10.07;;;16.50;99.90;;;;;;4073086;29;20653;-96
2022/03/13 08:19:11;;;;;;;13.77;9.68;;;17.00;99.90;;;;;;4090505;29;20176;-96
2022/03/13 08:21:13;;;;;;;13.48;9.30;;;17.50;99.90;;;;;;4075278;29;20208;-95
2022/03/13 08:23:14;;;;;;;14.63;9.75;;;18.20;99.90;;;;;;4091673;29;20180;-96
2022/03/13 08:25:18;;;;;;;12.23;8.52;;;17.90;99.90;;;;;;4074441;29;20212;-95
2022/03/13 08:27:19;;;;;;;12.00;8.40;;;17.70;99.90;;;;;;4086630;29;20186;-96
2022/03/13 08:29:20;;;;;;;11.88;8.30;;;17.60;99.90;;;;;;4073711;29;20207;-96
2022/03/13 08:31:22;;;;;;;13.43;9.05;;;17.50;99.90;;;;;;4089137;29;20199;-96
2022/03/13 08:33:25;;;;;;;12.52;8.40;;;17.60;99.90;;;;;;4089817;29;20172;-94
2022/03/13 08:35:32;;;;;;;13.45;8.32;;;17.80;99.90;;;;;;4088015;29;20621;-96
2022/03/13 08:37:36;;;;;;;13.63;8.00;;;17.30;99.90;;;;;;4070097;29;20203;-96
2022/03/13 08:39:37;;;;;;;11.75;7.43;;;17.40;99.90;;;;;;4071072;29;20183;-96
2022/03/13 08:41:39;;;;;;;12.55;7.80;;;17.20;99.90;;;;;;4071887;29;20283;-95
2022/03/13 08:43:40;;;;;;;11.00;7.75;;;17.40;99.90;;;;;;4089559;29;20270;-95
2022/03/13 08:45:41;;;;;;;10.68;7.18;;;17.80;99.90;;;;;;4076449;29;20203;-95
2022/03/13 08:47:42;;;;;;;12.18;7.80;;;17.50;99.90;;;;;;4074018;29;20660;-95
2022/03/13 08:49:43;;;;;;;8.43;6.75;;;17.70;99.90;;;;;;4090499;29;20172;-96
2022/03/13 08:51:44;;;;;;;9.75;6.85;;;17.90;99.90;;;;;;4077179;29;20185;-95
2022/03/13 08:53:56;;;;;;;8.60;6.50;;;17.80;99.90;;;;;;4074789;29;20246;-95
2022/03/13 08:55:58;;;;;;;8.15;6.10;;;17.70;99.90;;;;;;4092349;29;20211;-96
2022/03/13 08:58:01;;;;;;;7.07;5.45;;;17.90;99.90;;;;;;4091332;29;20175;-95
2022/03/13 09:00:04;;;;;;;7.38;5.22;;;17.50;99.90;;;;;;4090817;29;20172;-95
2022/03/13 09:02:09;;;;;;;6.82;5.03;;;17.20;99.90;;;;;;4082029;29;20204;-96
2022/03/13 09:04:11;;;;;;;8.45;5.65;;;17.00;99.90;;;;;;4094102;29;20179;-96
2022/03/13 09:06:12;;;;;;;7.32;5.50;;;16.90;99.90;;;;;;4077636;29;20195;-96
2022/03/13 09:08:13;;;;;;;6.80;4.80;;;17.10;99.90;;;;;;4063465;29;20653;-95
2022/03/13 09:10:14;;;;;;;8.15;5.20;;;17.50;99.90;;;;;;4078940;29;20223;-95
2022/03/13 09:12:19;;;;;;;8.82;5.22;;;17.40;99.90;;;;;;4077812;29;20195;-96
2022/03/13 09:14:23;;;;;;;10.85;5.32;;;17.40;99.90;;;;;;4078376;29;20176;-96
2022/03/13 09:16:32;;;;;;;7.55;5.50;;;17.60;99.90;;;;;;4096178;29;20175;-96
2022/03/13 09:18:40;;;;;;;6.93;4.80;;;17.60;99.90;;;;;;4064590;29;20165;-95
2022/03/13 09:20:43;;;;;;;6.15;4.45;;;17.40;99.90;;;;;;4095467;29;20180;-96
2022/03/13 09:22:52;;;;;;;6.68;5.00;;;17.30;99.90;;;;;;4094020;29;20241;-95
2022/03/13 09:24:54;;;;;;;11.50;4.50;;;17.10;99.90;;;;;;4080300;29;20196;-96
2022/03/13 09:26:55;;;;;;;6.28;4.18;;;17.00;99.90;;;;;;4094291;29;20199;-95
2022/03/13 09:28:56;;;;;;;8.40;4.70;;;17.10;99.90;;;;;;4079450;29;20180;-95
2022/03/13 09:30:58;;;;;;;6.00;4.40;;;16.90;99.90;;;;;;4093575;29;20250;-96
2022/03/13 09:32:58;;;;;;;6.35;4.53;;;17.00;99.90;;;;;;4091310;29;20561;-96
2022/03/13 09:34:59;;;;;;;8.27;4.32;;;17.40;99.90;;;;;;4077449;29;20217;-96
2022/03/13 09:37:03;;;;;;;5.88;4.20;;;17.30;99.90;;;;;;4093801;29;20266;-96
2022/03/13 09:39:05;;;;;;;6.40;4.68;;;17.20;99.90;;;;;;4076720;29;20243;-96
2022/03/13 09:41:06;;;;;;;5.60;4.22;;;17.50;99.90;;;;;;4074969;29;20215;-96
2022/03/13 09:43:20;;;;;;;6.03;3.78;;;17.60;99.90;;;;;;4077686;29;20222;-96
2022/03/13 09:45:22;;;;;;;5.65;3.90;;;17.80;99.90;;;;;;4094368;29;20199;-96
2022/03/13 09:47:23;;;;;;;5.63;4.00;;;17.80;99.90;;;;;;4075734;29;20247;-96
2022/03/13 09:49:24;;;;;;;6.22;4.35;;;18.00;99.90;;;;;;4073893;29;20184;-94
2022/03/13 09:51:25;;;;;;;6.97;4.35;;;18.20;99.90;;;;;;4075646;29;20231;-96
2022/03/13 09:53:37;;;;;;;6.63;4.00;;;18.50;99.90;;;;;;4096057;29;20211;-96
2022/03/13 09:55:38;;;;;;;5.70;3.65;;;18.30;99.90;;;;;;4076270;29;20223;-95
2022/03/13 09:57:41;;;;;;;5.38;3.95;;;18.30;99.90;;;;;;4092891;29;20179;-96
2022/03/13 09:59:50;;;;;;;5.45;3.92;;;18.20;99.90;;;;;;4089535;29;20262;-95
2022/03/13 10:01:51;;;;;;;8.40;3.92;;;17.50;99.90;;;;;;4090958;29;20223;-96
2022/03/13 10:03:54;;;;;;;4.55;3.42;;;17.30;99.90;;;;;;4088755;29;20549;-96
2022/03/13 10:05:56;;;;;;;5.43;3.85;;;17.00;99.90;;;;;;4074979;29;20283;-96
2022/03/13 10:08:02;;;;;;;5.55;3.60;;;16.90;99.90;;;;;;4076335;29;20172;-95
2022/03/13 10:10:12;;;;;;;4.45;3.45;;;16.40;99.90;;;;;;4087477;29;20187;-95
2022/03/13 10:12:16;;;;;;;5.50;3.60;;;16.20;99.90;;;;;;4071312;29;20267;-96
2022/03/13 10:14:17;;;;;;;6.68;4.15;;;16.30;99.90;;;;;;4086842;29;20179;-96
2022/03/13 10:16:39;;;;;;;6.20;3.70;;;16.40;99.90;;;;;;4072877;29;20199;-95
2022/03/13 10:18:43;;;;;;;6.47;3.72;;;16.60;99.90;;;;;;4089378;29;20207;-95
2022/03/13 10:20:45;;;;;;;5.30;3.78;;;16.50;99.90;;;;;;4075305;29;20191;-95
2022/03/13 10:22:50;;;;;;;7.47;4.18;;;16.60;99.90;;;;;;4088859;29;20244;-95
2022/03/13 10:24:51;;;;;;;6.70;4.38;;;16.50;99.90;;;;;;4073531;29;20199;-95
2022/03/13 10:27:14;;;;;;;4.57;3.65;;;16.20;99.90;;;;;;4088888;29;20187;-96
2022/03/13 10:29:30;;;;;;;6.32;4.28;;;16.30;99.90;;;;;;4072251;29;20676;-96
2022/03/13 10:31:32;;;;;;;6.70;4.22;;;16.40;99.90;;;;;;4087358;29;20183;-95